Accueil
METAR-TAF:

METAR-TAF

Aéroports :

Aéroport du Touquet-Côte d'Opale

Le Touquet, France

latitude: 50-30-53N, longitude: 001-37-39E, altitude: 6 m

Observation

Le bulletin a été fait il y a 32 minutes, à 08:30 UTC
Vent 5 kt de sud-est
Température 18°C
Humidité 83%
Pression 1009 hPa
Visibilité 10 km ou plus
pas de nuages en-dessous de 1500 mètres et pas de cumulonimbus.

METAR: LFAT 150830Z AUTO 14005KT CAVOK 18/15 Q1009 NOSIG

Heure: 11:02 (09:02 UTC)

Prévision

Le bulletin a été fait il y a 1 heure et 2 minutes, à 08:00 UTC
Prévision valable du 15 à 09 UTC au 15 à 18 UTC
Vent 8 kt de sud-est
Visibilité 10 km ou plus
pas de nuages en-dessous de 1500 mètres et pas de cumulonimbus.

TAF: LFAT 150800Z 1509/1518 13008KT CAVOK

Observations et prévisions météorologiques de plus de 4000 aéroports (messages METAR et TAF).

Les stations disponibles sont représentées par des disques jaunes et rouges sur la carte.

Passer la souris dessus pour voir le nom de la station.

Cliquer dessus pour voir les observations et prévisions météorologiques.

Pour changer de carte: cliquez sur les boutons verts avec une croix noire pour zoomer, sur le bouton vert avec un tiret pour effectuer un zoom arrière, ou sur les flèches vertes pour les cartes adjacentes.


METAR-TAF: